createdAt,value
2023-01-05T00:00:31.169Z,323.0
2023-01-05T00:01:31.079Z,299.0
2023-01-05T00:02:31.191Z,280.0
2023-01-05T00:03:31.120Z,282.0
2023-01-05T00:04:31.074Z,296.0
2023-01-05T00:05:31.021Z,297.0
2023-01-05T00:06:31.043Z,301.0
2023-01-05T00:07:30.997Z,300.0
2023-01-05T00:08:36.656Z,280.0
2023-01-05T00:09:31.019Z,284.0
2023-01-05T00:10:30.979Z,281.0
2023-01-05T00:11:30.946Z,271.0
2023-01-05T00:12:30.952Z,294.0
2023-01-05T00:13:30.922Z,296.0
2023-01-05T00:14:30.968Z,295.0
2023-01-05T00:15:30.905Z,289.0
2023-01-05T00:16:30.994Z,281.0
2023-01-05T00:17:30.886Z,281.0
2023-01-05T00:18:30.856Z,280.0
2023-01-05T00:19:30.851Z,283.0
2023-01-05T00:20:30.863Z,287.0
2023-01-05T00:21:30.814Z,289.0
2023-01-05T00:22:31.013Z,315.0
2023-01-05T00:23:30.787Z,330.0
2023-01-05T00:24:30.805Z,343.0
2023-01-05T00:25:30.794Z,341.0
2023-01-05T00:26:30.779Z,324.0
2023-01-05T00:27:30.730Z,322.0
2023-01-05T00:28:30.734Z,305.0
2023-01-05T00:29:30.739Z,287.0
2023-01-05T00:30:30.747Z,283.0
2023-01-05T00:31:30.746Z,276.0
2023-01-05T00:32:30.684Z,280.0
2023-01-05T00:33:30.643Z,285.0
2023-01-05T00:34:30.645Z,312.0
2023-01-05T00:35:30.641Z,363.0
2023-01-05T00:36:30.615Z,354.0
2023-01-05T00:37:30.614Z,361.0
2023-01-05T00:38:30.605Z,366.0
2023-01-05T00:39:30.583Z,359.0
2023-01-05T00:40:30.564Z,351.0
2023-01-05T00:41:30.566Z,353.0
2023-01-05T00:42:30.557Z,354.0
2023-01-05T00:43:30.539Z,352.0
2023-01-05T00:44:30.518Z,287.0
2023-01-05T00:45:30.582Z,306.0
2023-01-05T00:46:30.496Z,309.0
2023-01-05T00:47:30.465Z,327.0
2023-01-05T00:48:30.476Z,330.0
2023-01-05T00:49:30.468Z,337.0
2023-01-05T00:50:30.444Z,343.0
2023-01-05T00:51:30.439Z,344.0
2023-01-05T00:52:30.416Z,340.0
2023-01-05T00:53:30.427Z,321.0
2023-01-05T00:54:30.442Z,311.0
2023-01-05T00:55:30.394Z,295.0
2023-01-05T00:56:30.352Z,294.0
2023-01-05T00:57:30.367Z,295.0
2023-01-05T00:58:30.330Z,296.0
2023-01-05T00:59:30.303Z,297.0
2023-01-05T01:00:30.300Z,299.0
2023-01-05T01:01:30.369Z,300.0
2023-01-05T01:02:30.362Z,302.0
2023-01-05T01:03:30.294Z,304.0
2023-01-05T01:04:30.272Z,318.0
2023-01-05T01:05:30.246Z,371.0
2023-01-05T01:06:30.231Z,333.0
2023-01-05T01:07:30.225Z,343.0
2023-01-05T01:08:30.190Z,345.0
2023-01-05T01:09:30.180Z,348.0
2023-01-05T01:10:30.171Z,355.0
2023-01-05T01:11:30.179Z,352.0
2023-01-05T01:12:30.183Z,350.0
2023-01-05T01:13:30.765Z,353.0
2023-01-05T01:14:30.114Z,354.0
2023-01-05T01:15:30.135Z,348.0
2023-01-05T01:16:30.143Z,346.0
2023-01-05T01:17:30.110Z,341.0
2023-01-05T01:18:30.047Z,322.0
2023-01-05T01:19:30.082Z,293.0
2023-01-05T01:20:30.052Z,295.0
2023-01-05T01:21:30.053Z,294.0
2023-01-05T01:22:30.058Z,292.0
2023-01-05T01:23:30.049Z,296.0
2023-01-05T01:24:30.052Z,310.0
2023-01-05T01:25:30.643Z,305.0
2023-01-05T01:26:29.953Z,308.0
2023-01-05T01:27:29.974Z,306.0
2023-01-05T01:28:30.003Z,298.0
2023-01-05T01:29:29.940Z,306.0
2023-01-05T01:30:30.081Z,308.0
2023-01-05T01:31:29.871Z,314.0
2023-01-05T01:32:29.918Z,309.0
2023-01-05T01:33:29.865Z,312.0
2023-01-05T01:34:29.835Z,309.0
2023-01-05T01:35:29.834Z,316.0
2023-01-05T01:36:29.816Z,310.0
2023-01-05T01:37:29.805Z,305.0
2023-01-05T01:38:29.789Z,309.0
2023-01-05T01:39:29.763Z,312.0
2023-01-05T01:40:29.747Z,321.0
2023-01-05T01:41:29.743Z,336.0
2023-01-05T01:42:29.743Z,344.0
2023-01-05T01:43:29.737Z,346.0
2023-01-05T01:44:29.688Z,350.0
2023-01-05T01:45:29.807Z,348.0
2023-01-05T01:46:29.795Z,352.0
2023-01-05T01:47:29.668Z,341.0
2023-01-05T01:48:29.657Z,340.0
2023-01-05T01:49:29.626Z,351.0
2023-01-05T01:50:29.687Z,347.0
2023-01-05T01:51:29.624Z,346.0
2023-01-05T01:52:29.595Z,317.0
2023-01-05T01:53:29.582Z,324.0
2023-01-05T01:54:29.559Z,322.0
2023-01-05T01:55:29.558Z,323.0
2023-01-05T01:56:29.569Z,341.0
2023-01-05T01:57:29.532Z,322.0
2023-01-05T01:58:29.535Z,330.0
2023-01-05T01:59:29.537Z,331.0
2023-01-05T02:00:29.486Z,329.0
2023-01-05T02:01:29.568Z,335.0
2023-01-05T02:02:29.641Z,340.0
2023-01-05T02:03:29.454Z,325.0
2023-01-05T02:04:29.500Z,318.0
2023-01-05T02:05:29.456Z,297.0
2023-01-05T02:06:29.439Z,295.0
2023-01-05T02:07:29.414Z,297.0
2023-01-05T02:08:29.362Z,294.0
2023-01-05T02:09:29.376Z,297.0
2023-01-05T02:10:29.365Z,301.0
2023-01-05T02:11:29.337Z,308.0
2023-01-05T02:12:29.384Z,308.0
2023-01-05T02:13:31.654Z,311.0
2023-01-05T02:14:29.308Z,311.0
2023-01-05T02:15:29.356Z,303.0
2023-01-05T02:16:29.343Z,302.0
2023-01-05T02:17:29.275Z,301.0
2023-01-05T02:18:29.252Z,298.0
2023-01-05T02:19:29.250Z,297.0
2023-01-05T02:20:29.205Z,298.0
2023-01-05T02:21:29.191Z,298.0
2023-01-05T02:22:29.230Z,297.0
2023-01-05T02:23:29.165Z,296.0
2023-01-05T02:24:29.161Z,302.0
2023-01-05T02:25:29.175Z,306.0
2023-01-05T02:26:29.156Z,303.0
2023-01-05T02:27:29.128Z,300.0
2023-01-05T02:28:29.148Z,301.0
2023-01-05T02:29:29.093Z,302.0
2023-01-05T02:30:29.133Z,304.0
2023-01-05T02:31:29.092Z,349.0
2023-01-05T02:32:29.057Z,301.0
2023-01-05T02:33:29.062Z,271.0
2023-01-05T02:34:29.046Z,268.0
2023-01-05T02:35:29.024Z,325.0
2023-01-05T02:36:29.144Z,292.0
2023-01-05T02:37:28.980Z,288.0
2023-01-05T02:38:29.036Z,298.0
2023-01-05T02:39:28.985Z,334.0
2023-01-05T02:40:28.944Z,336.0
2023-01-05T02:41:28.974Z,324.0
2023-01-05T02:42:28.906Z,314.0
2023-01-05T02:43:28.926Z,313.0
2023-01-05T02:44:28.906Z,304.0
2023-01-05T02:45:28.916Z,296.0
2023-01-05T02:46:28.914Z,296.0
2023-01-05T02:47:28.904Z,292.0
2023-01-05T02:48:28.857Z,295.0
2023-01-05T02:49:28.851Z,293.0
2023-01-05T02:50:28.826Z,294.0
2023-01-05T02:51:28.791Z,295.0
2023-01-05T02:52:28.793Z,296.0
2023-01-05T02:53:28.773Z,293.0
2023-01-05T02:54:28.798Z,299.0
2023-01-05T02:55:28.742Z,314.0
2023-01-05T02:56:28.730Z,329.0
2023-01-05T02:57:28.741Z,327.0
2023-01-05T02:58:28.729Z,325.0
2023-01-05T02:59:28.690Z,327.0
2023-01-05T03:00:28.702Z,326.0
2023-01-05T03:01:28.804Z,318.0
2023-01-05T03:02:28.849Z,318.0
2023-01-05T03:03:28.677Z,317.0
2023-01-05T03:04:28.630Z,318.0
2023-01-05T03:05:28.620Z,323.0
2023-01-05T03:06:28.604Z,335.0
2023-01-05T03:07:28.644Z,329.0
2023-01-05T03:08:32.786Z,297.0
2023-01-05T03:09:28.569Z,311.0
2023-01-05T03:10:28.550Z,318.0
2023-01-05T03:11:28.595Z,306.0
2023-01-05T03:12:28.538Z,290.0
2023-01-05T03:13:28.535Z,332.0
2023-01-05T03:14:28.493Z,335.0
2023-01-05T03:15:28.507Z,336.0
2023-01-05T03:16:28.472Z,330.0
2023-01-05T03:17:28.460Z,325.0
2023-01-05T03:18:28.447Z,322.0
2023-01-05T03:19:28.426Z,331.0
2023-01-05T03:20:28.411Z,319.0
2023-01-05T03:21:28.456Z,278.0
2023-01-05T03:22:28.403Z,293.0
2023-01-05T03:23:28.408Z,290.0
2023-01-05T03:24:28.357Z,279.0
2023-01-05T03:25:28.340Z,342.0
2023-01-05T03:26:28.357Z,356.0
2023-01-05T03:27:28.354Z,356.0
2023-01-05T03:28:28.307Z,348.0
2023-01-05T03:29:28.330Z,339.0
2023-01-05T03:30:28.281Z,324.0
2023-01-05T03:31:28.290Z,318.0
2023-01-05T03:32:34.820Z,317.0
2023-01-05T03:33:28.239Z,317.0
2023-01-05T03:34:28.228Z,311.0
2023-01-05T03:35:28.230Z,305.0
2023-01-05T03:36:28.232Z,309.0
2023-01-05T03:37:28.224Z,347.0
2023-01-05T03:38:28.158Z,344.0
2023-01-05T03:39:28.166Z,301.0
2023-01-05T03:40:28.176Z,301.0
2023-01-05T03:41:28.141Z,299.0
2023-01-05T03:42:28.127Z,297.0
2023-01-05T03:43:28.113Z,300.0
2023-01-05T03:44:28.088Z,283.0
2023-01-05T03:45:28.066Z,313.0
2023-01-05T03:46:28.088Z,329.0
2023-01-05T03:47:28.056Z,330.0
2023-01-05T03:48:28.067Z,321.0
2023-01-05T03:49:28.056Z,314.0
2023-01-05T03:50:28.064Z,305.0
2023-01-05T03:51:28.005Z,300.0
2023-01-05T03:52:27.971Z,286.0
2023-01-05T03:53:28.009Z,286.0
2023-01-05T03:54:27.956Z,284.0
2023-01-05T03:55:27.938Z,286.0
2023-01-05T03:56:27.941Z,288.0
2023-01-05T03:57:27.910Z,289.0
2023-01-05T03:58:27.900Z,290.0
2023-01-05T03:59:27.887Z,293.0
2023-01-05T04:00:27.861Z,291.0
2023-01-05T04:01:27.895Z,292.0
2023-01-05T04:02:28.000Z,303.0
2023-01-05T04:03:31.642Z,303.0
2023-01-05T04:04:27.820Z,300.0
2023-01-05T04:05:27.813Z,305.0
2023-01-05T04:06:27.796Z,298.0
2023-01-05T04:07:27.772Z,302.0
2023-01-05T04:08:27.774Z,300.0
2023-01-05T04:09:27.759Z,303.0
2023-01-05T04:10:27.737Z,312.0
2023-01-05T04:11:27.718Z,321.0
2023-01-05T04:12:27.728Z,306.0
2023-01-05T04:13:27.703Z,304.0
2023-01-05T04:14:27.683Z,310.0
2023-01-05T04:15:27.715Z,311.0
2023-01-05T04:16:27.702Z,322.0
2023-01-05T04:17:27.629Z,335.0
2023-01-05T04:18:27.649Z,341.0
2023-01-05T04:19:27.634Z,334.0
2023-01-05T04:20:27.596Z,332.0
2023-01-05T04:21:27.659Z,328.0
2023-01-05T04:22:27.821Z,340.0
2023-01-05T04:23:27.571Z,341.0
2023-01-05T04:24:27.593Z,314.0
2023-01-05T04:25:27.532Z,339.0
2023-01-05T04:26:27.535Z,392.0
2023-01-05T04:27:27.513Z,394.0
2023-01-05T04:28:27.491Z,403.0
2023-01-05T04:29:27.468Z,388.0
2023-01-05T04:30:27.474Z,369.0
2023-01-05T04:31:27.508Z,358.0
2023-01-05T04:32:27.599Z,349.0
2023-01-05T04:33:27.418Z,304.0
2023-01-05T04:34:27.422Z,309.0
2023-01-05T04:35:27.406Z,303.0
2023-01-05T04:36:27.411Z,304.0
2023-01-05T04:37:27.403Z,316.0
2023-01-05T04:38:27.380Z,326.0
2023-01-05T04:39:27.344Z,346.0
2023-01-05T04:40:27.342Z,348.0
2023-01-05T04:41:27.333Z,346.0
2023-01-05T04:42:27.306Z,343.0
2023-01-05T04:43:27.299Z,338.0
2023-01-05T04:44:27.290Z,338.0
2023-01-05T04:45:27.264Z,346.0
2023-01-05T04:46:27.282Z,330.0
2023-01-05T04:47:27.225Z,323.0
2023-01-05T04:48:27.257Z,318.0
2023-01-05T04:49:27.225Z,320.0
2023-01-05T04:50:27.209Z,318.0
2023-01-05T04:51:27.195Z,323.0
2023-01-05T04:52:27.184Z,331.0
2023-01-05T04:53:27.181Z,332.0
2023-01-05T04:54:27.146Z,332.0
2023-01-05T04:55:27.134Z,342.0
2023-01-05T04:56:27.115Z,352.0
2023-01-05T04:57:27.122Z,351.0
2023-01-05T04:58:27.084Z,333.0
2023-01-05T04:59:27.093Z,310.0
2023-01-05T05:00:27.067Z,376.0
2023-01-05T05:01:27.162Z,445.0
2023-01-05T05:02:27.293Z,446.0
2023-01-05T05:03:32.769Z,454.0
2023-01-05T05:04:27.044Z,452.0
2023-01-05T05:05:26.985Z,443.0
2023-01-05T05:06:27.034Z,438.0
2023-01-05T05:07:27.005Z,384.0
2023-01-05T05:08:26.970Z,365.0
2023-01-05T05:09:26.943Z,373.0
2023-01-05T05:10:26.961Z,366.0
2023-01-05T05:11:26.930Z,362.0
2023-01-05T05:12:26.902Z,354.0
2023-01-05T05:13:26.896Z,297.0
2023-01-05T05:14:26.874Z,294.0
2023-01-05T05:15:26.946Z,288.0
2023-01-05T05:16:26.930Z,292.0
2023-01-05T05:17:26.865Z,277.0
2023-01-05T05:18:26.814Z,277.0
2023-01-05T05:19:26.847Z,279.0
2023-01-05T05:20:26.804Z,278.0
2023-01-05T05:21:26.802Z,281.0
2023-01-05T05:22:26.803Z,294.0
2023-01-05T05:23:26.823Z,292.0
2023-01-05T05:24:26.765Z,303.0
2023-01-05T05:25:26.740Z,306.0
2023-01-05T05:26:26.713Z,310.0
2023-01-05T05:27:26.724Z,311.0
2023-01-05T05:28:26.716Z,319.0
2023-01-05T05:29:26.720Z,333.0
2023-01-05T05:30:26.702Z,333.0
2023-01-05T05:31:26.734Z,317.0
2023-01-05T05:32:26.675Z,316.0
2023-01-05T05:33:26.695Z,313.0
2023-01-05T05:34:26.685Z,322.0
2023-01-05T05:35:26.619Z,329.0
2023-01-05T05:36:26.718Z,345.0
2023-01-05T05:37:26.600Z,347.0
2023-01-05T05:38:26.610Z,350.0
2023-01-05T05:39:26.643Z,355.0
2023-01-05T05:40:26.666Z,352.0
2023-01-05T05:41:26.632Z,350.0
2023-01-05T05:42:26.625Z,357.0
2023-01-05T05:43:26.588Z,357.0
2023-01-05T05:44:26.479Z,359.0
2023-01-05T05:45:26.457Z,363.0
2023-01-05T05:46:26.475Z,361.0
2023-01-05T05:47:26.433Z,365.0
2023-01-05T05:48:26.454Z,370.0
2023-01-05T05:49:26.427Z,356.0
2023-01-05T05:50:26.412Z,361.0
2023-01-05T05:51:26.391Z,353.0
2023-01-05T05:52:26.386Z,346.0
2023-01-05T05:53:26.345Z,310.0
2023-01-05T05:54:26.373Z,313.0
2023-01-05T05:55:26.364Z,293.0
2023-01-05T05:56:26.322Z,292.0
2023-01-05T05:57:26.283Z,293.0
2023-01-05T05:58:26.290Z,283.0
2023-01-05T05:59:26.316Z,304.0
2023-01-05T06:00:26.282Z,334.0
2023-01-05T06:01:26.262Z,348.0
2023-01-05T06:02:26.263Z,357.0
2023-01-05T06:03:26.291Z,357.0
2023-01-05T06:04:26.215Z,357.0
2023-01-05T06:05:26.212Z,362.0
2023-01-05T06:06:26.184Z,361.0
2023-01-05T06:07:26.165Z,367.0
2023-01-05T06:08:26.214Z,364.0
2023-01-05T06:09:26.144Z,360.0
2023-01-05T06:10:26.178Z,349.0
2023-01-05T06:11:26.109Z,354.0
2023-01-05T06:12:26.086Z,356.0
2023-01-05T06:13:26.106Z,356.0
2023-01-05T06:14:26.094Z,332.0
2023-01-05T06:15:26.092Z,325.0
2023-01-05T06:16:26.123Z,333.0
2023-01-05T06:17:26.019Z,342.0
2023-01-05T06:18:26.047Z,360.0
2023-01-05T06:19:26.039Z,363.0
2023-01-05T06:20:25.998Z,362.0
2023-01-05T06:21:26.006Z,362.0
2023-01-05T06:22:25.959Z,361.0
2023-01-05T06:23:25.956Z,359.0
2023-01-05T06:24:25.965Z,357.0
2023-01-05T06:25:25.927Z,350.0
2023-01-05T06:26:25.917Z,358.0
2023-01-05T06:27:25.905Z,357.0
2023-01-05T06:28:25.889Z,356.0
2023-01-05T06:29:26.699Z,359.0
2023-01-05T06:30:25.864Z,362.0
2023-01-05T06:31:25.970Z,354.0
2023-01-05T06:32:25.823Z,359.0
2023-01-05T06:33:25.825Z,361.0
2023-01-05T06:34:25.830Z,360.0
2023-01-05T06:35:25.789Z,345.0
2023-01-05T06:36:25.780Z,353.0
2023-01-05T06:37:25.762Z,351.0
2023-01-05T06:38:25.771Z,328.0
2023-01-05T06:39:25.756Z,298.0
2023-01-05T06:40:25.747Z,291.0
2023-01-05T06:41:25.703Z,264.0
2023-01-05T06:42:25.733Z,297.0
2023-01-05T06:43:25.669Z,310.0
2023-01-05T06:44:25.665Z,337.0
2023-01-05T06:45:25.721Z,335.0
2023-01-05T06:46:25.686Z,334.0
2023-01-05T06:47:25.626Z,331.0
2023-01-05T06:48:25.658Z,320.0
2023-01-05T06:49:25.607Z,313.0
2023-01-05T06:50:25.597Z,311.0
2023-01-05T06:51:25.589Z,302.0
2023-01-05T06:52:25.581Z,299.0
2023-01-05T06:53:25.548Z,291.0
2023-01-05T06:54:25.534Z,285.0
2023-01-05T06:55:25.525Z,288.0
2023-01-05T06:56:25.525Z,293.0
2023-01-05T06:57:25.508Z,297.0
2023-01-05T06:58:25.484Z,289.0
2023-01-05T06:59:25.480Z,289.0
2023-01-05T07:00:25.495Z,300.0
2023-01-05T07:01:25.589Z,312.0
2023-01-05T07:02:25.419Z,359.0
2023-01-05T07:03:25.431Z,364.0
2023-01-05T07:04:25.572Z,364.0
2023-01-05T07:05:25.398Z,363.0
2023-01-05T07:06:25.404Z,358.0
2023-01-05T07:07:25.376Z,351.0
2023-01-05T07:08:25.350Z,350.0
2023-01-05T07:09:25.345Z,344.0
2023-01-05T07:10:25.328Z,344.0
2023-01-05T07:11:25.294Z,343.0
2023-01-05T07:12:25.310Z,343.0
2023-01-05T07:13:25.286Z,340.0
2023-01-05T07:14:25.284Z,336.0
2023-01-05T07:15:25.260Z,332.0
2023-01-05T07:16:25.297Z,331.0
2023-01-05T07:17:25.250Z,332.0
2023-01-05T07:18:25.216Z,336.0
2023-01-05T07:19:25.204Z,339.0
2023-01-05T07:20:25.261Z,343.0
2023-01-05T07:21:25.159Z,346.0
2023-01-05T07:22:25.189Z,353.0
2023-01-05T07:23:25.141Z,353.0
2023-01-05T07:24:25.129Z,360.0
2023-01-05T07:25:25.141Z,358.0
2023-01-05T07:26:25.141Z,366.0
2023-01-05T07:27:25.077Z,347.0
2023-01-05T07:28:25.090Z,344.0
2023-01-05T07:29:25.079Z,334.0
2023-01-05T07:30:25.063Z,344.0
2023-01-05T07:31:25.067Z,344.0
2023-01-05T07:32:25.057Z,352.0
2023-01-05T07:33:25.029Z,352.0
2023-01-05T07:34:24.991Z,358.0
2023-01-05T07:35:24.974Z,370.0
2023-01-05T07:36:24.999Z,369.0
2023-01-05T07:37:25.381Z,368.0
2023-01-05T07:38:24.936Z,364.0
2023-01-05T07:39:24.940Z,363.0
2023-01-05T07:40:24.971Z,367.0
2023-01-05T07:41:24.891Z,360.0
2023-01-05T07:42:24.884Z,361.0
2023-01-05T07:43:24.899Z,364.0
2023-01-05T07:44:24.881Z,353.0
2023-01-05T07:45:24.940Z,354.0
2023-01-05T07:46:24.894Z,346.0
2023-01-05T07:47:24.817Z,334.0
2023-01-05T07:48:24.838Z,310.0
2023-01-05T07:49:24.811Z,302.0
2023-01-05T07:50:24.789Z,301.0
2023-01-05T07:51:24.774Z,305.0
2023-01-05T07:52:24.769Z,318.0
2023-01-05T07:53:24.761Z,321.0
2023-01-05T07:54:24.747Z,307.0
2023-01-05T07:55:24.719Z,291.0
2023-01-05T07:56:24.697Z,292.0
2023-01-05T07:57:24.688Z,297.0
2023-01-05T07:58:24.709Z,294.0
2023-01-05T07:59:24.678Z,288.0
2023-01-05T08:00:24.658Z,292.0
2023-01-05T08:01:24.778Z,289.0
2023-01-05T08:02:24.680Z,302.0
2023-01-05T08:03:24.631Z,304.0
2023-01-05T08:04:24.677Z,324.0
2023-01-05T08:05:24.595Z,331.0
2023-01-05T08:06:24.589Z,317.0
2023-01-05T08:07:24.590Z,320.0
2023-01-05T08:08:25.011Z,308.0
2023-01-05T08:09:24.530Z,301.0
2023-01-05T08:10:24.546Z,294.0
2023-01-05T08:11:24.519Z,300.0
2023-01-05T08:12:24.504Z,291.0
2023-01-05T08:13:24.541Z,295.0
2023-01-05T08:14:24.475Z,295.0
2023-01-05T08:15:24.459Z,322.0
2023-01-05T08:16:24.519Z,333.0
2023-01-05T08:17:24.445Z,348.0
2023-01-05T08:18:24.435Z,351.0
2023-01-05T08:19:24.470Z,353.0
2023-01-05T08:20:24.532Z,348.0
2023-01-05T08:21:24.427Z,307.0
2023-01-05T08:22:24.399Z,310.0
2023-01-05T08:23:25.180Z,312.0
2023-01-05T08:24:24.354Z,314.0
2023-01-05T08:25:24.350Z,310.0
2023-01-05T08:26:24.330Z,304.0
2023-01-05T08:27:24.335Z,298.0
2023-01-05T08:28:28.516Z,298.0
2023-01-05T08:29:24.285Z,295.0
2023-01-05T08:30:24.351Z,299.0
2023-01-05T08:31:24.353Z,379.0
2023-01-05T08:32:24.246Z,377.0
2023-01-05T08:33:24.217Z,400.0
2023-01-05T08:34:25.800Z,339.0
2023-01-05T08:35:24.190Z,302.0
2023-01-05T08:36:24.232Z,310.0
2023-01-05T08:37:24.373Z,336.0
2023-01-05T08:38:24.163Z,296.0
2023-01-05T08:39:24.126Z,295.0
2023-01-05T08:40:24.160Z,332.0
2023-01-05T08:41:24.111Z,325.0
2023-01-05T08:42:24.075Z,317.0
2023-01-05T08:43:24.094Z,340.0
2023-01-05T08:44:24.091Z,350.0
2023-01-05T08:45:24.071Z,336.0
2023-01-05T08:46:24.086Z,333.0
2023-01-05T08:47:28.201Z,307.0
2023-01-05T08:48:24.030Z,297.0
2023-01-05T08:49:24.029Z,293.0
2023-01-05T08:50:24.090Z,296.0
2023-01-05T08:51:23.976Z,296.0
2023-01-05T08:52:23.964Z,295.0
2023-01-05T08:53:23.954Z,296.0
2023-01-05T08:54:23.932Z,296.0
2023-01-05T08:55:23.986Z,295.0
2023-01-05T08:56:23.899Z,298.0
2023-01-05T08:57:23.909Z,322.0
2023-01-05T08:58:23.887Z,350.0
2023-01-05T08:59:23.914Z,347.0
2023-01-05T09:00:23.847Z,310.0
2023-01-05T09:01:23.961Z,304.0
2023-01-05T09:02:26.075Z,299.0
2023-01-05T09:03:23.901Z,299.0
2023-01-05T09:04:23.809Z,295.0
2023-01-05T09:05:23.776Z,299.0
2023-01-05T09:06:23.802Z,296.0
2023-01-05T09:07:23.787Z,421.0
2023-01-05T09:08:23.786Z,402.0
2023-01-05T09:09:23.747Z,412.0
2023-01-05T09:10:23.785Z,372.0
2023-01-05T09:11:23.742Z,336.0
2023-01-05T09:12:27.859Z,335.0
2023-01-05T09:13:23.739Z,331.0
2023-01-05T09:14:23.676Z,340.0
2023-01-05T09:15:23.673Z,360.0
2023-01-05T09:17:23.700Z,360.0
2023-01-05T09:18:23.636Z,309.0
2023-01-05T09:19:23.607Z,333.0
2023-01-05T09:20:23.584Z,336.0
2023-01-05T09:21:23.578Z,356.0
2023-01-05T09:22:23.548Z,315.0
2023-01-05T09:23:23.552Z,298.0
2023-01-05T09:24:23.544Z,288.0
2023-01-05T09:25:23.549Z,308.0
2023-01-05T09:26:23.505Z,384.0
2023-01-05T09:27:23.510Z,348.0
2023-01-05T09:28:23.492Z,327.0
2023-01-05T09:29:23.493Z,316.0
2023-01-05T09:30:23.436Z,291.0
2023-01-05T09:31:23.480Z,240.0
2023-01-05T09:32:23.426Z,237.0
2023-01-05T09:33:23.420Z,240.0
2023-01-05T09:34:23.381Z,255.0
2023-01-05T09:35:23.374Z,278.0
2023-01-05T09:36:23.359Z,281.0
2023-01-05T09:37:23.354Z,286.0
2023-01-05T09:38:23.392Z,288.0
2023-01-05T09:39:23.351Z,302.0
2023-01-05T09:40:23.300Z,314.0
2023-01-05T09:41:23.306Z,315.0
2023-01-05T09:42:23.303Z,312.0
2023-01-05T09:43:23.265Z,307.0
2023-01-05T09:44:23.277Z,308.0
2023-01-05T09:45:23.274Z,313.0
2023-01-05T09:46:23.351Z,313.0
2023-01-05T09:47:23.224Z,306.0
2023-01-05T09:48:23.282Z,319.0
2023-01-05T09:49:23.196Z,324.0
2023-01-05T09:50:23.180Z,326.0
2023-01-05T09:51:23.181Z,327.0
2023-01-05T09:52:23.163Z,323.0
2023-01-05T09:53:23.158Z,323.0
2023-01-05T09:54:23.185Z,329.0
2023-01-05T09:55:23.151Z,328.0
2023-01-05T09:56:58.837Z,325.0
2023-01-05T09:57:23.139Z,322.0
2023-01-05T09:58:28.069Z,324.0
2023-01-05T09:59:23.071Z,322.0
2023-01-05T10:00:23.038Z,321.0
2023-01-05T10:01:23.060Z,314.0
2023-01-05T10:02:23.036Z,289.0
2023-01-05T10:04:01.832Z,289.0
2023-01-05T10:04:28.597Z,273.0
2023-01-05T10:05:23.096Z,275.0
2023-01-05T10:06:22.970Z,275.0
2023-01-05T10:07:22.994Z,243.0
2023-01-05T10:08:22.956Z,244.0
2023-01-05T10:09:22.923Z,249.0
2023-01-05T10:10:29.824Z,273.0
2023-01-05T10:11:22.917Z,285.0
2023-01-05T10:12:22.894Z,289.0
2023-01-05T10:13:22.869Z,298.0
2023-01-05T10:14:22.860Z,291.0
2023-01-05T10:15:22.849Z,303.0
2023-01-05T10:16:29.065Z,308.0
2023-01-05T10:18:22.861Z,315.0
2023-01-05T10:19:22.789Z,318.0
2023-01-05T10:20:22.824Z,320.0
2023-01-05T10:21:22.760Z,326.0
2023-01-05T10:22:22.736Z,326.0
2023-01-05T10:23:22.783Z,325.0
2023-01-05T10:24:22.771Z,329.0
2023-01-05T10:25:22.742Z,317.0
2023-01-05T10:26:22.697Z,317.0
2023-01-05T10:27:25.645Z,310.0
2023-01-05T10:28:22.668Z,282.0
2023-01-05T10:29:22.656Z,274.0
2023-01-05T10:30:22.678Z,275.0
2023-01-05T10:31:22.736Z,275.0
2023-01-05T10:32:22.617Z,278.0
2023-01-05T10:33:27.827Z,274.0
2023-01-05T10:34:22.624Z,282.0
2023-01-05T10:35:58.863Z,303.0
2023-01-05T10:36:57.722Z,296.0
2023-01-05T10:37:22.569Z,291.0
2023-01-05T10:38:22.574Z,288.0
2023-01-05T10:39:22.550Z,304.0
2023-01-05T10:40:22.556Z,344.0
2023-01-05T10:41:22.538Z,370.0
2023-01-05T10:42:22.495Z,397.0
2023-01-05T10:43:22.483Z,400.0
2023-01-05T10:44:22.471Z,442.0
2023-01-05T10:45:22.427Z,373.0
2023-01-05T10:46:42.623Z,388.0
2023-01-05T10:47:22.446Z,428.0
2023-01-05T10:48:22.447Z,430.0
2023-01-05T10:49:22.404Z,276.0
2023-01-05T10:50:22.386Z,370.0
2023-01-05T10:51:22.369Z,337.0
2023-01-05T10:52:22.369Z,317.0
2023-01-05T10:53:22.365Z,337.0
2023-01-05T10:54:22.358Z,310.0
2023-01-05T10:55:22.304Z,315.0
2023-01-05T10:56:22.293Z,339.0
2023-01-05T10:57:22.275Z,322.0
2023-01-05T10:58:22.293Z,321.0
2023-01-05T10:59:22.325Z,311.0
2023-01-05T11:00:22.261Z,309.0
2023-01-05T11:01:22.387Z,324.0
2023-01-05T11:02:22.414Z,281.0
2023-01-05T11:03:33.557Z,334.0
2023-01-05T11:04:34.979Z,301.0
2023-01-05T11:05:22.241Z,305.0
2023-01-05T11:06:22.193Z,344.0
2023-01-05T11:07:22.139Z,355.0
2023-01-05T11:08:22.197Z,315.0
2023-01-05T11:09:22.756Z,298.0
2023-01-05T11:10:22.091Z,298.0
2023-01-05T11:11:22.180Z,298.0
2023-01-05T11:12:22.088Z,304.0
2023-01-05T11:13:22.185Z,314.0
2023-01-05T11:14:22.067Z,313.0
2023-01-05T11:15:22.084Z,301.0
2023-01-05T11:16:22.097Z,303.0
2023-01-05T11:17:22.056Z,300.0
2023-01-05T11:18:22.067Z,337.0
2023-01-05T11:19:21.993Z,342.0
2023-01-05T11:20:21.965Z,322.0
2023-01-05T11:21:21.961Z,300.0
2023-01-05T11:22:21.961Z,327.0
2023-01-05T11:23:21.957Z,319.0
2023-01-05T11:24:21.923Z,282.0
2023-01-05T11:25:21.903Z,293.0
2023-01-05T11:26:21.900Z,300.0
2023-01-05T11:27:21.895Z,319.0
2023-01-05T11:28:21.918Z,349.0
2023-01-05T11:29:21.878Z,353.0
2023-01-05T11:30:21.878Z,353.0
2023-01-05T11:31:21.992Z,355.0
2023-01-05T11:32:21.811Z,361.0
2023-01-05T11:33:25.313Z,351.0
2023-01-05T11:34:21.807Z,351.0
2023-01-05T11:35:21.783Z,342.0
2023-01-05T11:36:21.773Z,338.0
2023-01-05T11:37:21.747Z,330.0
2023-01-05T11:38:21.755Z,335.0
2023-01-05T11:39:21.751Z,329.0
2023-01-05T11:40:21.718Z,301.0
2023-01-05T11:41:21.705Z,301.0
2023-01-05T11:42:25.397Z,291.0
2023-01-05T11:43:21.828Z,343.0
2023-01-05T11:44:21.666Z,342.0
2023-01-05T11:45:21.683Z,341.0
2023-01-05T11:46:21.670Z,330.0
2023-01-05T11:47:21.642Z,355.0
2023-01-05T11:48:21.621Z,352.0
2023-01-05T11:49:21.608Z,311.0
2023-01-05T11:50:21.739Z,323.0
2023-01-05T11:51:27.503Z,340.0
2023-01-05T11:52:21.544Z,284.0
2023-01-05T11:53:21.681Z,312.0
2023-01-05T11:54:21.548Z,339.0
2023-01-05T11:55:21.493Z,341.0
2023-01-05T11:56:21.492Z,339.0
2023-01-05T11:57:21.501Z,336.0
2023-01-05T11:58:21.566Z,304.0
2023-01-05T11:59:21.444Z,347.0
2023-01-05T12:00:21.513Z,302.0
2023-01-05T12:01:21.524Z,316.0
2023-01-05T12:02:21.457Z,320.0
2023-01-05T12:03:21.421Z,317.0
2023-01-05T12:04:21.444Z,354.0
2023-01-05T12:05:21.383Z,339.0
2023-01-05T12:06:21.353Z,350.0
2023-01-05T12:07:21.360Z,334.0
2023-01-05T12:08:21.365Z,321.0
2023-01-05T12:09:21.367Z,299.0
2023-01-05T12:10:21.322Z,294.0
2023-01-05T12:11:21.329Z,321.0
2023-01-05T12:12:21.266Z,315.0
2023-01-05T12:13:21.425Z,311.0
2023-01-05T12:14:21.261Z,333.0
2023-01-05T12:15:21.250Z,332.0
2023-01-05T12:16:21.277Z,335.0
2023-01-05T12:17:21.224Z,317.0
2023-01-05T12:18:21.208Z,299.0
2023-01-05T12:19:21.231Z,320.0
2023-01-05T12:20:21.185Z,337.0
2023-01-05T12:21:21.173Z,304.0
2023-01-05T12:22:21.162Z,346.0
2023-01-05T12:23:21.175Z,357.0
2023-01-05T12:24:21.135Z,293.0
2023-01-05T12:25:21.123Z,352.0
2023-01-05T12:26:21.078Z,352.0
2023-01-05T12:27:21.097Z,334.0
2023-01-05T12:28:39.529Z,300.0
2023-01-05T12:34:01.660Z,438.0
2023-01-05T12:34:20.984Z,352.0
2023-01-05T12:35:20.997Z,323.0
2023-01-05T12:36:20.998Z,297.0
2023-01-05T12:37:21.005Z,297.0
2023-01-05T12:38:20.934Z,310.0
2023-01-05T12:39:20.953Z,316.0
2023-01-05T12:40:20.907Z,319.0
2023-01-05T12:41:20.883Z,317.0
2023-01-05T12:42:20.886Z,305.0
2023-01-05T12:43:20.882Z,345.0
2023-01-05T12:44:20.858Z,346.0
2023-01-05T12:45:20.842Z,354.0
2023-01-05T12:46:20.944Z,378.0
2023-01-05T12:47:20.830Z,268.0
2023-01-05T12:48:20.941Z,282.0
2023-01-05T12:49:20.833Z,334.0
2023-01-05T12:50:20.789Z,280.0
2023-01-05T12:51:20.746Z,336.0
2023-01-05T12:52:20.781Z,390.0
2023-01-05T12:53:20.721Z,384.0
2023-01-05T12:54:20.728Z,338.0
2023-01-05T12:55:20.711Z,322.0
2023-01-05T12:56:20.697Z,331.0
2023-01-05T12:57:20.692Z,286.0
2023-01-05T12:58:20.653Z,352.0